sensor_id;sensor_type;location;lat;lon;timestamp;pressure;altitude;pressure_sealevel;temperature;humidity
66945;BME280;53853;51.982;5.928;2023-07-02T00:01:38;100527.03;;;19.02;69.64
66945;BME280;53853;51.982;5.928;2023-07-02T00:04:11;100527.66;;;19.04;69.88
66945;BME280;53853;51.982;5.928;2023-07-02T00:06:43;100533.28;;;19.03;70.11
66945;BME280;53853;51.982;5.928;2023-07-02T00:09:13;100532.22;;;19.04;70.22
66945;BME280;53853;51.982;5.928;2023-07-02T00:11:45;100542.19;;;19.03;70.38
66945;BME280;53853;51.982;5.928;2023-07-02T00:14:15;100538.06;;;19.00;70.41
66945;BME280;53853;51.982;5.928;2023-07-02T00:16:46;100534.97;;;18.97;70.50
66945;BME280;53853;51.982;5.928;2023-07-02T00:19:18;100528.72;;;18.96;70.70
66945;BME280;53853;51.982;5.928;2023-07-02T00:21:48;100523.31;;;18.96;70.38
66945;BME280;53853;51.982;5.928;2023-07-02T00:24:20;100531.41;;;18.96;70.36
66945;BME280;53853;51.982;5.928;2023-07-02T00:26:50;100524.16;;;18.97;70.50
66945;BME280;53853;51.982;5.928;2023-07-02T00:29:20;100516.50;;;18.94;70.25
66945;BME280;53853;51.982;5.928;2023-07-02T00:31:50;100520.63;;;18.90;70.16
66945;BME280;53853;51.982;5.928;2023-07-02T00:34:23;100524.38;;;18.89;70.24
66945;BME280;53853;51.982;5.928;2023-07-02T00:36:53;100518.38;;;18.87;70.10
66945;BME280;53853;51.982;5.928;2023-07-02T00:39:23;100517.53;;;18.86;70.41
66945;BME280;53853;51.982;5.928;2023-07-02T00:41:53;100526.47;;;18.87;70.31
66945;BME280;53853;51.982;5.928;2023-07-02T00:44:23;100525.22;;;18.89;70.43
66945;BME280;53853;51.982;5.928;2023-07-02T00:46:53;100525.44;;;18.88;70.68
66945;BME280;53853;51.982;5.928;2023-07-02T00:49:26;100550.75;;;18.87;71.29
66945;BME280;53853;51.982;5.928;2023-07-02T00:51:56;100561.34;;;18.81;71.50
66945;BME280;53853;51.982;5.928;2023-07-02T00:54:28;100564.88;;;18.75;70.45
66945;BME280;53853;51.982;5.928;2023-07-02T00:56:59;100577.56;;;18.68;68.82
66945;BME280;53853;51.982;5.928;2023-07-02T00:59:30;100583.56;;;18.63;69.13
66945;BME280;53853;51.982;5.928;2023-07-02T01:02:03;100582.97;;;18.55;66.80
66945;BME280;53853;51.982;5.928;2023-07-02T01:04:35;100584.22;;;18.45;68.07
66945;BME280;53853;51.982;5.928;2023-07-02T01:07:06;100579.84;;;18.38;68.07
66945;BME280;53853;51.982;5.928;2023-07-02T01:09:38;100574.88;;;18.28;68.38
66945;BME280;53853;51.982;5.928;2023-07-02T01:12:09;100572.41;;;18.20;67.37
66945;BME280;53853;51.982;5.928;2023-07-02T01:14:45;100583.38;;;18.12;66.07
66945;BME280;53853;51.982;5.928;2023-07-02T01:17:17;100583.81;;;18.02;66.91
66945;BME280;53853;51.982;5.928;2023-07-02T01:19:52;100583.75;;;17.95;67.57
66945;BME280;53853;51.982;5.928;2023-07-02T01:22:27;100582.72;;;17.89;67.62
66945;BME280;53853;51.982;5.928;2023-07-02T01:24:58;100583.31;;;17.85;68.30
66945;BME280;53853;51.982;5.928;2023-07-02T01:27:28;100577.50;;;17.81;68.66
66945;BME280;53853;51.982;5.928;2023-07-02T01:29:58;100577.72;;;17.80;68.45
66945;BME280;53853;51.982;5.928;2023-07-02T01:32:29;100589.91;;;17.75;69.00
66945;BME280;53853;51.982;5.928;2023-07-02T01:35:01;100590.31;;;17.72;69.94
66945;BME280;53853;51.982;5.928;2023-07-02T01:37:31;100589.72;;;17.70;69.21
66945;BME280;53853;51.982;5.928;2023-07-02T01:40:04;100600.91;;;17.67;70.02
66945;BME280;53853;51.982;5.928;2023-07-02T01:42:36;100589.06;;;17.68;69.61
66945;BME280;53853;51.982;5.928;2023-07-02T01:45:08;100593.22;;;17.64;69.80
66945;BME280;53853;51.982;5.928;2023-07-02T01:47:38;100593.63;;;17.61;70.37
66945;BME280;53853;51.982;5.928;2023-07-02T01:50:13;100599.41;;;17.58;70.96
66945;BME280;53853;51.982;5.928;2023-07-02T01:52:43;100597.94;;;17.55;70.74
66945;BME280;53853;51.982;5.928;2023-07-02T01:55:13;100597.31;;;17.53;70.73
66945;BME280;53853;51.982;5.928;2023-07-02T01:57:44;100603.94;;;17.51;70.61
66945;BME280;53853;51.982;5.928;2023-07-02T02:00:15;100602.69;;;17.47;70.78
66945;BME280;53853;51.982;5.928;2023-07-02T02:02:45;100607.66;;;17.43;70.53
66945;BME280;53853;51.982;5.928;2023-07-02T02:05:18;100612.59;;;17.39;70.19
66945;BME280;53853;51.982;5.928;2023-07-02T02:07:50;100609.88;;;17.33;70.11
66945;BME280;53853;51.982;5.928;2023-07-02T02:10:20;100609.03;;;17.26;69.91
66945;BME280;53853;51.982;5.928;2023-07-02T02:12:49;100610.00;;;17.18;69.75
66945;BME280;53853;51.982;5.928;2023-07-02T02:15:19;100608.13;;;17.12;69.94
66945;BME280;53853;51.982;5.928;2023-07-02T02:17:49;100608.09;;;17.05;70.06
66945;BME280;53853;51.982;5.928;2023-07-02T02:20:23;100609.06;;;16.97;70.19
66945;BME280;53853;51.982;5.928;2023-07-02T02:22:53;100611.53;;;16.92;71.00
66945;BME280;53853;51.982;5.928;2023-07-02T02:25:23;100611.25;;;16.87;72.06
66945;BME280;53853;51.982;5.928;2023-07-02T02:27:53;100629.44;;;16.85;72.51
66945;BME280;53853;51.982;5.928;2023-07-02T02:30:24;100629.63;;;16.83;72.29
66945;BME280;53853;51.982;5.928;2023-07-02T02:32:54;100625.47;;;16.81;72.17
66945;BME280;53853;51.982;5.928;2023-07-02T02:35:26;100625.03;;;16.77;72.23
66945;BME280;53853;51.982;5.928;2023-07-02T02:37:56;100618.41;;;16.73;71.86
66945;BME280;53853;51.982;5.928;2023-07-02T02:40:27;100621.69;;;16.69;72.06
66945;BME280;53853;51.982;5.928;2023-07-02T02:42:57;100613.34;;;16.63;72.00
66945;BME280;53853;51.982;5.928;2023-07-02T02:45:27;100615.78;;;16.58;72.27
66945;BME280;53853;51.982;5.928;2023-07-02T02:47:57;100623.63;;;16.53;72.32
66945;BME280;53853;51.982;5.928;2023-07-02T02:50:29;100624.00;;;16.50;72.70
66945;BME280;53853;51.982;5.928;2023-07-02T02:52:59;100620.69;;;16.48;74.17
66945;BME280;53853;51.982;5.928;2023-07-02T02:55:29;100619.00;;;16.47;74.40
66945;BME280;53853;51.982;5.928;2023-07-02T02:57:59;100623.56;;;16.46;74.33
66945;BME280;53853;51.982;5.928;2023-07-02T03:00:29;100629.59;;;16.48;74.84
66945;BME280;53853;51.982;5.928;2023-07-02T03:03:00;100630.41;;;16.49;74.39
66945;BME280;53853;51.982;5.928;2023-07-02T03:05:32;100631.06;;;16.51;74.49
66945;BME280;53853;51.982;5.928;2023-07-02T03:08:02;100635.41;;;16.52;74.10
66945;BME280;53853;51.982;5.928;2023-07-02T03:10:32;100644.31;;;16.53;74.65
66945;BME280;53853;51.982;5.928;2023-07-02T03:13:02;100637.69;;;16.55;74.60
66945;BME280;53853;51.982;5.928;2023-07-02T03:15:32;100644.75;;;16.56;75.04
66945;BME280;53853;51.982;5.928;2023-07-02T03:18:02;100650.75;;;16.58;74.44
66945;BME280;53853;51.982;5.928;2023-07-02T03:20:35;100649.56;;;16.61;74.98
66945;BME280;53853;51.982;5.928;2023-07-02T03:23:05;100651.38;;;16.60;75.39
66945;BME280;53853;51.982;5.928;2023-07-02T03:25:35;100651.84;;;16.64;74.65
66945;BME280;53853;51.982;5.928;2023-07-02T03:28:05;100658.88;;;16.65;74.84
66945;BME280;53853;51.982;5.928;2023-07-02T03:30:35;100660.56;;;16.66;74.78
66945;BME280;53853;51.982;5.928;2023-07-02T03:33:05;100652.28;;;16.67;74.26
66945;BME280;53853;51.982;5.928;2023-07-02T03:35:37;100655.63;;;16.70;73.94
66945;BME280;53853;51.982;5.928;2023-07-02T03:38:07;100668.88;;;16.71;74.06
66945;BME280;53853;51.982;5.928;2023-07-02T03:40:37;100664.53;;;16.70;74.42
66945;BME280;53853;51.982;5.928;2023-07-02T03:43:07;100655.41;;;16.71;73.92
66945;BME280;53853;51.982;5.928;2023-07-02T03:45:37;100668.06;;;16.71;73.95
66945;BME280;53853;51.982;5.928;2023-07-02T03:48:07;100663.69;;;16.70;73.55
66945;BME280;53853;51.982;5.928;2023-07-02T03:50:40;100667.22;;;16.70;73.14
66945;BME280;53853;51.982;5.928;2023-07-02T03:53:09;100669.06;;;16.70;73.13
66945;BME280;53853;51.982;5.928;2023-07-02T03:55:39;100665.56;;;16.69;72.52
66945;BME280;53853;51.982;5.928;2023-07-02T03:58:09;100674.63;;;16.68;72.62
66945;BME280;53853;51.982;5.928;2023-07-02T04:00:39;100679.19;;;16.67;72.80
66945;BME280;53853;51.982;5.928;2023-07-02T04:03:11;100682.53;;;16.70;72.67
66945;BME280;53853;51.982;5.928;2023-07-02T04:05:43;100671.13;;;16.67;71.95
66945;BME280;53853;51.982;5.928;2023-07-02T04:08:13;100685.78;;;16.65;73.46
66945;BME280;53853;51.982;5.928;2023-07-02T04:10:43;100682.28;;;16.64;72.98
66945;BME280;53853;51.982;5.928;2023-07-02T04:13:13;100690.34;;;16.64;73.13
66945;BME280;53853;51.982;5.928;2023-07-02T04:15:43;100691.38;;;16.63;72.81
66945;BME280;53853;51.982;5.928;2023-07-02T04:18:13;100688.03;;;16.61;72.17
66945;BME280;53853;51.982;5.928;2023-07-02T04:20:45;100687.22;;;16.61;73.47
66945;BME280;53853;51.982;5.928;2023-07-02T04:23:15;100691.56;;;16.62;73.50
66945;BME280;53853;51.982;5.928;2023-07-02T04:25:45;100694.25;;;16.62;72.49
66945;BME280;53853;51.982;5.928;2023-07-02T04:28:15;100691.16;;;16.65;72.38
66945;BME280;53853;51.982;5.928;2023-07-02T04:30:46;100687.28;;;16.67;72.42
66945;BME280;53853;51.982;5.928;2023-07-02T04:33:17;100694.13;;;16.70;70.97
66945;BME280;53853;51.982;5.928;2023-07-02T04:35:50;100695.59;;;16.73;71.43
66945;BME280;53853;51.982;5.928;2023-07-02T04:38:19;100700.78;;;16.74;71.82
66945;BME280;53853;51.982;5.928;2023-07-02T04:40:49;100700.78;;;16.74;71.44
66945;BME280;53853;51.982;5.928;2023-07-02T04:43:19;100708.66;;;16.76;70.52
66945;BME280;53853;51.982;5.928;2023-07-02T04:45:50;100707.66;;;16.77;70.68
66945;BME280;53853;51.982;5.928;2023-07-02T04:48:21;100706.59;;;16.78;69.71
66945;BME280;53853;51.982;5.928;2023-07-02T04:50:53;100698.53;;;16.78;70.69
66945;BME280;53853;51.982;5.928;2023-07-02T04:53:23;100706.22;;;16.81;70.13
66945;BME280;53853;51.982;5.928;2023-07-02T04:55:53;100711.59;;;16.81;70.53
66945;BME280;53853;51.982;5.928;2023-07-02T04:58:24;100707.50;;;16.85;69.95
66945;BME280;53853;51.982;5.928;2023-07-02T05:00:53;100708.34;;;16.86;69.12
66945;BME280;53853;51.982;5.928;2023-07-02T05:03:23;100710.66;;;16.89;69.01
66945;BME280;53853;51.982;5.928;2023-07-02T05:05:56;100708.44;;;16.92;67.07
66945;BME280;53853;51.982;5.928;2023-07-02T05:08:26;100719.19;;;16.92;66.72
66945;BME280;53853;51.982;5.928;2023-07-02T05:10:56;100718.78;;;16.95;66.29
66945;BME280;53853;51.982;5.928;2023-07-02T05:13:26;100720.47;;;16.96;66.64
66945;BME280;53853;51.982;5.928;2023-07-02T05:15:55;100720.06;;;16.99;66.19
66945;BME280;53853;51.982;5.928;2023-07-02T05:18:25;100717.63;;;17.05;66.61
66945;BME280;53853;51.982;5.928;2023-07-02T05:20:58;100722.22;;;17.11;66.36
66945;BME280;53853;51.982;5.928;2023-07-02T05:23:28;100725.16;;;17.16;65.45
66945;BME280;53853;51.982;5.928;2023-07-02T05:25:58;100733.31;;;17.23;65.99
66945;BME280;53853;51.982;5.928;2023-07-02T05:28:27;100728.81;;;17.36;66.16
66945;BME280;53853;51.982;5.928;2023-07-02T05:30:57;100733.22;;;17.44;63.54
66945;BME280;53853;51.982;5.928;2023-07-02T05:33:27;100735.75;;;17.52;64.20
66945;BME280;53853;51.982;5.928;2023-07-02T05:36:01;100731.25;;;17.60;62.75
66945;BME280;53853;51.982;5.928;2023-07-02T05:38:32;100737.72;;;17.65;62.62
66945;BME280;53853;51.982;5.928;2023-07-02T05:41:02;100742.09;;;17.73;63.35
66945;BME280;53853;51.982;5.928;2023-07-02T05:43:32;100738.78;;;17.78;62.59
66945;BME280;53853;51.982;5.928;2023-07-02T05:46:02;100742.53;;;17.77;61.34
66945;BME280;53853;51.982;5.928;2023-07-02T05:48:32;100747.13;;;17.83;62.11
66945;BME280;53853;51.982;5.928;2023-07-02T05:51:05;100750.69;;;17.90;62.01
66945;BME280;53853;51.982;5.928;2023-07-02T05:53:36;100757.38;;;17.94;61.05
66945;BME280;53853;51.982;5.928;2023-07-02T05:56:06;100746.81;;;17.99;60.21
66945;BME280;53853;51.982;5.928;2023-07-02T05:58:36;100759.28;;;18.00;59.55
66945;BME280;53853;51.982;5.928;2023-07-02T06:01:06;100762.19;;;18.05;60.04
66945;BME280;53853;51.982;5.928;2023-07-02T06:03:36;100756.00;;;18.12;59.96
66945;BME280;53853;51.982;5.928;2023-07-02T06:06:08;100766.13;;;18.09;58.74
66945;BME280;53853;51.982;5.928;2023-07-02T06:08:38;100768.81;;;18.09;59.02
66945;BME280;53853;51.982;5.928;2023-07-02T06:11:10;100765.72;;;18.13;58.99
66945;BME280;53853;51.982;5.928;2023-07-02T06:13:40;100761.38;;;18.12;59.43
66945;BME280;53853;51.982;5.928;2023-07-02T06:16:10;100765.50;;;18.07;59.21
66945;BME280;53853;51.982;5.928;2023-07-02T06:18:40;100768.41;;;18.13;59.78
66945;BME280;53853;51.982;5.928;2023-07-02T06:21:12;100769.28;;;18.20;59.85
66945;BME280;53853;51.982;5.928;2023-07-02T06:23:42;100777.41;;;18.26;59.80
66945;BME280;53853;51.982;5.928;2023-07-02T06:26:13;100777.22;;;18.35;59.60
66945;BME280;53853;51.982;5.928;2023-07-02T06:28:43;100773.72;;;18.41;58.65
66945;BME280;53853;51.982;5.928;2023-07-02T06:31:13;100783.47;;;18.42;58.59
66945;BME280;53853;51.982;5.928;2023-07-02T06:33:42;100781.41;;;18.44;58.00
66945;BME280;53853;51.982;5.928;2023-07-02T06:36:16;100784.09;;;18.44;57.74
66945;BME280;53853;51.982;5.928;2023-07-02T06:38:46;100786.81;;;18.51;58.22
66945;BME280;53853;51.982;5.928;2023-07-02T06:41:16;100790.97;;;18.53;57.00
66945;BME280;53853;51.982;5.928;2023-07-02T06:43:46;100792.25;;;18.57;56.89
66945;BME280;53853;51.982;5.928;2023-07-02T06:46:16;100794.94;;;18.57;55.97
66945;BME280;53853;51.982;5.928;2023-07-02T06:48:46;100795.16;;;18.62;56.30
66945;BME280;53853;51.982;5.928;2023-07-02T06:51:18;100794.34;;;18.69;56.41
66945;BME280;53853;51.982;5.928;2023-07-02T06:53:49;100800.78;;;18.74;56.27
66945;BME280;53853;51.982;5.928;2023-07-02T06:56:18;100802.44;;;18.75;56.16
66945;BME280;53853;51.982;5.928;2023-07-02T06:58:48;100813.47;;;18.80;56.21
66945;BME280;53853;51.982;5.928;2023-07-02T07:01:18;100804.13;;;18.76;54.63
66945;BME280;53853;51.982;5.928;2023-07-02T07:03:48;100818.44;;;18.70;54.71
66945;BME280;53853;51.982;5.928;2023-07-02T07:06:21;100825.28;;;18.66;54.48
66945;BME280;53853;51.982;5.928;2023-07-02T07:08:51;100832.53;;;18.65;54.29
66945;BME280;53853;51.982;5.928;2023-07-02T07:11:21;100829.44;;;18.69;54.23
66945;BME280;53853;51.982;5.928;2023-07-02T07:13:51;100829.44;;;18.75;54.58
66945;BME280;53853;51.982;5.928;2023-07-02T07:16:20;100825.56;;;18.85;54.64
66945;BME280;53853;51.982;5.928;2023-07-02T07:18:50;100836.34;;;18.85;53.22
66945;BME280;53853;51.982;5.928;2023-07-02T07:21:23;100835.31;;;18.86;52.75
66945;BME280;53853;51.982;5.928;2023-07-02T07:23:53;100840.91;;;18.84;53.33
66945;BME280;53853;51.982;5.928;2023-07-02T07:26:23;100845.84;;;18.80;53.36
66945;BME280;53853;51.982;5.928;2023-07-02T07:28:53;100840.91;;;18.84;53.99
66945;BME280;53853;51.982;5.928;2023-07-02T07:31:25;100845.28;;;18.85;53.13
66945;BME280;53853;51.982;5.928;2023-07-02T07:33:54;100843.00;;;18.89;53.30
66945;BME280;53853;51.982;5.928;2023-07-02T07:36:27;100851.34;;;18.94;53.33
66945;BME280;53853;51.982;5.928;2023-07-02T07:38:57;100853.63;;;18.97;53.58
66945;BME280;53853;51.982;5.928;2023-07-02T07:41:27;100854.66;;;19.03;53.35
66945;BME280;53853;51.982;5.928;2023-07-02T07:43:57;100851.34;;;19.07;53.87
66945;BME280;53853;51.982;5.928;2023-07-02T07:46:27;100853.84;;;19.15;53.61
66945;BME280;53853;51.982;5.928;2023-07-02T07:48:57;100855.94;;;19.20;52.98
66945;BME280;53853;51.982;5.928;2023-07-02T07:51:30;100853.88;;;19.29;53.66
66945;BME280;53853;51.982;5.928;2023-07-02T07:54:02;100860.28;;;19.41;53.52
66945;BME280;53853;51.982;5.928;2023-07-02T07:56:32;100855.13;;;19.46;52.75
66945;BME280;53853;51.982;5.928;2023-07-02T07:59:02;100860.94;;;19.50;52.50
66945;BME280;53853;51.982;5.928;2023-07-02T08:01:32;100857.19;;;19.51;52.46
66945;BME280;53853;51.982;5.928;2023-07-02T08:04:02;100860.91;;;19.57;52.82
66945;BME280;53853;51.982;5.928;2023-07-02T08:06:34;100853.44;;;19.59;53.44
66945;BME280;53853;51.982;5.928;2023-07-02T08:09:04;100855.09;;;19.60;53.15
66945;BME280;53853;51.982;5.928;2023-07-02T08:11:35;100865.50;;;19.63;51.99
66945;BME280;53853;51.982;5.928;2023-07-02T08:14:05;100860.72;;;19.71;52.77
66945;BME280;53853;51.982;5.928;2023-07-02T08:16:35;100862.78;;;19.76;52.10
66945;BME280;53853;51.982;5.928;2023-07-02T08:19:05;100860.53;;;19.80;51.95
66945;BME280;53853;51.982;5.928;2023-07-02T08:21:38;100859.91;;;19.84;52.19
66945;BME280;53853;51.982;5.928;2023-07-02T08:24:08;100862.38;;;19.93;50.80
66945;BME280;53853;51.982;5.928;2023-07-02T08:26:38;100862.59;;;19.91;50.00
66945;BME280;53853;51.982;5.928;2023-07-02T08:29:07;100869.66;;;19.92;49.45
66945;BME280;53853;51.982;5.928;2023-07-02T08:31:37;100874.84;;;19.94;48.61
66945;BME280;53853;51.982;5.928;2023-07-02T08:34:07;100870.47;;;19.99;48.43
66945;BME280;53853;51.982;5.928;2023-07-02T08:36:40;100872.53;;;20.04;46.28
66945;BME280;53853;51.982;5.928;2023-07-02T08:39:10;100885.88;;;19.99;46.60
66945;BME280;53853;51.982;5.928;2023-07-02T08:41:44;100892.72;;;19.95;46.65
66945;BME280;53853;51.982;5.928;2023-07-02T08:44:16;100882.53;;;19.97;47.54
66945;BME280;53853;51.982;5.928;2023-07-02T08:46:49;100891.28;;;19.85;46.93
66945;BME280;53853;51.982;5.928;2023-07-02T08:49:22;100897.09;;;19.76;47.86
66945;BME280;53853;51.982;5.928;2023-07-02T08:51:54;100898.16;;;19.75;47.85
66945;BME280;53853;51.982;5.928;2023-07-02T08:54:24;100895.03;;;19.78;47.90
66945;BME280;53853;51.982;5.928;2023-07-02T08:56:54;100898.19;;;19.81;47.99
66945;BME280;53853;51.982;5.928;2023-07-02T08:59:24;100899.00;;;19.82;47.60
66945;BME280;53853;51.982;5.928;2023-07-02T09:01:55;100898.38;;;19.86;48.10
66945;BME280;53853;51.982;5.928;2023-07-02T09:04:25;100900.63;;;19.96;48.37
66945;BME280;53853;51.982;5.928;2023-07-02T09:07:08;100887.75;;;20.05;47.25
66945;BME280;53853;51.982;5.928;2023-07-02T09:09:48;100889.56;;;20.18;47.45
66945;BME280;53853;51.982;5.928;2023-07-02T09:12:28;100899.53;;;20.17;46.43
66945;BME280;53853;51.982;5.928;2023-07-02T09:15:00;100897.72;;;20.11;46.09
66945;BME280;53853;51.982;5.928;2023-07-02T09:17:34;100904.16;;;19.97;44.69
66945;BME280;53853;51.982;5.928;2023-07-02T09:20:05;100906.69;;;19.85;45.57
66945;BME280;53853;51.982;5.928;2023-07-02T09:22:41;100907.09;;;19.88;46.40
66945;BME280;53853;51.982;5.928;2023-07-02T09:25:11;100901.88;;;19.94;45.77
66945;BME280;53853;51.982;5.928;2023-07-02T09:27:41;100907.28;;;20.07;45.33
66945;BME280;53853;51.982;5.928;2023-07-02T09:30:13;100900.78;;;20.21;44.97
66945;BME280;53853;51.982;5.928;2023-07-02T09:32:44;100914.09;;;20.30;43.11
66945;BME280;53853;51.982;5.928;2023-07-02T09:35:15;100909.53;;;20.30;43.28
66945;BME280;53853;51.982;5.928;2023-07-02T09:37:47;100910.16;;;20.25;42.04
66945;BME280;53853;51.982;5.928;2023-07-02T09:40:18;100911.00;;;20.26;42.23
66945;BME280;53853;51.982;5.928;2023-07-02T09:42:51;100907.44;;;20.32;42.29
66945;BME280;53853;51.982;5.928;2023-07-02T09:45:22;100902.81;;;20.39;40.79
66945;BME280;53853;51.982;5.928;2023-07-02T09:47:52;100909.25;;;20.45;40.47
66945;BME280;53853;51.982;5.928;2023-07-02T09:50:25;100909.44;;;20.50;40.63
66945;BME280;53853;51.982;5.928;2023-07-02T09:52:59;100904.44;;;20.54;39.80
66945;BME280;53853;51.982;5.928;2023-07-02T09:55:30;100902.53;;;20.61;38.91
66945;BME280;53853;51.982;5.928;2023-07-02T09:58:00;100903.13;;;20.70;38.60
66945;BME280;53853;51.982;5.928;2023-07-02T10:00:30;100891.44;;;20.76;38.63
66945;BME280;53853;51.982;5.928;2023-07-02T10:03:00;100900.59;;;20.81;39.92
66945;BME280;53853;51.982;5.928;2023-07-02T10:05:31;100894.38;;;20.81;39.52
66945;BME280;53853;51.982;5.928;2023-07-02T10:08:15;100905.19;;;20.81;39.15
66945;BME280;53853;51.982;5.928;2023-07-02T10:10:49;100912.06;;;20.77;39.28
66945;BME280;53853;51.982;5.928;2023-07-02T10:13:27;100907.28;;;20.79;39.72
66945;BME280;53853;51.982;5.928;2023-07-02T10:16:01;100905.97;;;20.88;40.30
66945;BME280;53853;51.982;5.928;2023-07-02T10:18:31;100918.22;;;20.97;38.55
66945;BME280;53853;51.982;5.928;2023-07-02T10:21:13;100909.66;;;21.01;38.00
66945;BME280;53853;51.982;5.928;2023-07-02T10:23:46;100908.75;;;21.13;38.98
66945;BME280;53853;51.982;5.928;2023-07-02T10:26:18;100917.41;;;21.29;38.08
66945;BME280;53853;51.982;5.928;2023-07-02T10:28:58;100912.97;;;21.34;35.90
66945;BME280;53853;51.982;5.928;2023-07-02T10:31:29;100907.75;;;21.40;36.44
66945;BME280;53853;51.982;5.928;2023-07-02T10:33:59;100916.47;;;21.48;37.06
66945;BME280;53853;51.982;5.928;2023-07-02T10:36:29;100912.22;;;21.59;38.07
66945;BME280;53853;51.982;5.928;2023-07-02T10:39:04;100918.00;;;21.63;37.69
66945;BME280;53853;51.982;5.928;2023-07-02T10:41:47;100921.88;;;21.48;36.92
66945;BME280;53853;51.982;5.928;2023-07-02T10:44:17;100922.50;;;21.44;36.22
66945;BME280;53853;51.982;5.928;2023-07-02T10:46:48;100920.41;;;21.46;36.19
66945;BME280;53853;51.982;5.928;2023-07-02T10:49:18;100912.91;;;21.48;36.85
66945;BME280;53853;51.982;5.928;2023-07-02T10:51:57;100910.53;;;21.58;36.63
66945;BME280;53853;51.982;5.928;2023-07-02T10:54:39;100911.38;;;21.59;36.10
66945;BME280;53853;51.982;5.928;2023-07-02T10:57:12;100928.91;;;21.56;37.19
66945;BME280;53853;51.982;5.928;2023-07-02T10:59:43;100920.13;;;21.61;36.53
66945;BME280;53853;51.982;5.928;2023-07-02T11:02:13;100931.78;;;21.61;36.72
66945;BME280;53853;51.982;5.928;2023-07-02T11:04:43;100927.16;;;21.68;36.38
66945;BME280;53853;51.982;5.928;2023-07-02T11:07:15;100925.88;;;21.71;35.53
66945;BME280;53853;51.982;5.928;2023-07-02T11:09:54;100932.75;;;21.74;35.77
66945;BME280;53853;51.982;5.928;2023-07-02T11:12:28;100933.13;;;21.77;35.99
66945;BME280;53853;51.982;5.928;2023-07-02T11:15:07;100932.06;;;21.78;35.16
66945;BME280;53853;51.982;5.928;2023-07-02T11:17:38;100928.53;;;21.78;36.62
66945;BME280;53853;51.982;5.928;2023-07-02T11:20:09;100934.56;;;21.80;35.21
66945;BME280;53853;51.982;5.928;2023-07-02T11:22:39;100935.94;;;21.89;35.48
66945;BME280;53853;51.982;5.928;2023-07-02T11:25:13;100946.50;;;21.97;35.78
66945;BME280;53853;51.982;5.928;2023-07-02T11:27:43;100937.03;;;22.06;35.44
66945;BME280;53853;51.982;5.928;2023-07-02T11:30:13;100946.59;;;22.09;34.74
66945;BME280;53853;51.982;5.928;2023-07-02T11:32:51;100947.59;;;22.15;34.23
66945;BME280;53853;51.982;5.928;2023-07-02T11:35:22;100939.16;;;22.23;34.80
66945;BME280;53853;51.982;5.928;2023-07-02T11:38:03;100940.84;;;22.24;35.11
66945;BME280;53853;51.982;5.928;2023-07-02T11:40:36;100937.66;;;22.27;34.68
66945;BME280;53853;51.982;5.928;2023-07-02T11:43:06;100939.22;;;22.16;33.98
66945;BME280;53853;51.982;5.928;2023-07-02T11:45:36;100947.22;;;22.11;35.38
66945;BME280;53853;51.982;5.928;2023-07-02T11:48:06;100938.84;;;22.13;34.79
66945;BME280;53853;51.982;5.928;2023-07-02T11:50:36;100935.16;;;22.07;34.70
66945;BME280;53853;51.982;5.928;2023-07-02T11:53:06;100930.97;;;22.04;34.89
66945;BME280;53853;51.982;5.928;2023-07-02T11:55:38;100941.25;;;22.02;34.60
66945;BME280;53853;51.982;5.928;2023-07-02T11:58:08;100936.25;;;21.99;34.74
66945;BME280;53853;51.982;5.928;2023-07-02T12:00:38;100934.84;;;21.97;34.42
66945;BME280;53853;51.982;5.928;2023-07-02T12:03:08;100939.41;;;21.96;34.21
66945;BME280;53853;51.982;5.928;2023-07-02T12:05:39;100929.66;;;22.14;33.98
66945;BME280;53853;51.982;5.928;2023-07-02T12:08:09;100938.72;;;22.26;34.61
66945;BME280;53853;51.982;5.928;2023-07-02T12:10:42;100949.94;;;22.36;34.00
66945;BME280;53853;51.982;5.928;2023-07-02T12:13:12;100942.81;;;22.35;32.92
66945;BME280;53853;51.982;5.928;2023-07-02T12:15:42;100946.84;;;22.26;33.22
66945;BME280;53853;51.982;5.928;2023-07-02T12:18:12;100950.91;;;22.17;33.29
66945;BME280;53853;51.982;5.928;2023-07-02T12:20:42;100949.28;;;22.16;33.96
66945;BME280;53853;51.982;5.928;2023-07-02T12:23:12;100955.44;;;22.23;33.43
66945;BME280;53853;51.982;5.928;2023-07-02T12:25:44;100958.84;;;22.18;33.01
66945;BME280;53853;51.982;5.928;2023-07-02T12:28:15;100961.84;;;22.10;33.03
66945;BME280;53853;51.982;5.928;2023-07-02T12:30:45;100958.97;;;22.05;33.18
66945;BME280;53853;51.982;5.928;2023-07-02T12:33:15;100955.75;;;22.15;33.73
66945;BME280;53853;51.982;5.928;2023-07-02T12:35:45;100974.81;;;22.33;34.45
66945;BME280;53853;51.982;5.928;2023-07-02T12:38:16;100951.50;;;22.44;33.88
66945;BME280;53853;51.982;5.928;2023-07-02T12:40:49;100974.81;;;22.52;33.06
66945;BME280;53853;51.982;5.928;2023-07-02T12:43:19;100969.38;;;22.52;33.68
66945;BME280;53853;51.982;5.928;2023-07-02T12:45:49;100963.25;;;22.56;32.82
66945;BME280;53853;51.982;5.928;2023-07-02T12:48:19;100970.22;;;22.52;32.04
66945;BME280;53853;51.982;5.928;2023-07-02T12:50:56;100964.84;;;22.46;31.76
66945;BME280;53853;51.982;5.928;2023-07-02T12:53:26;100974.28;;;22.43;32.34
66945;BME280;53853;51.982;5.928;2023-07-02T12:55:59;100968.78;;;22.24;32.18
66945;BME280;53853;51.982;5.928;2023-07-02T12:58:29;100970.34;;;22.14;32.41
66945;BME280;53853;51.982;5.928;2023-07-02T13:00:59;100971.81;;;22.16;33.11
66945;BME280;53853;51.982;5.928;2023-07-02T13:03:30;100966.47;;;22.28;34.03
66945;BME280;53853;51.982;5.928;2023-07-02T13:06:01;100970.50;;;22.44;34.09
66945;BME280;53853;51.982;5.928;2023-07-02T13:08:31;100971.13;;;22.46;33.33
66945;BME280;53853;51.982;5.928;2023-07-02T13:11:04;100971.94;;;22.47;32.67